Currently 90°F in Murrieta, California, USA
90°F
92°F / 67°F
calm
0.00"
Thursday, September 23, 2021 2:05 PM PDT

Murrieta, California Weather Summary
Last 36 Hours

Temperature Winds Hourly Humidity Dewpoint
Time Report Norm Report Norm Max Gusts Precip. Rpt. Norm Rpt. Norm Pressure
1Thu 02:05 PM  89.9°F  87°F  calm  8 mph  none  0.00"  26%  32%  49°F  53°F  N/A
Thu 02:00 PM  90.1°F  87°F  calm  8 mph  none  0.00"  25%  32%  48°F  53°F  N/A
Thu 01:00 PM  90.9°F  86°F  calm  6 mph  none  0.00"  26%  32%  50°F  52°F  N/A
Thu 12:00 PM  90.8°F  84°F  calm  5 mph  none  0.00"  25%  35%  49°F  53°F  N/A
2Thu 11:41 AM  92.3°F  83°F  calm  4 mph  none  ----  26%  37%  51°F  54°F  N/A
Thu 11:00 AM  89.9°F  80°F  calm  3 mph  none  0.00"  31%  43%  54°F  55°F  N/A
Thu 10:00 AM  84.2°F  74°F  calm  2 mph  none  0.00"  37%  56%  54°F  57°F  N/A
Thu 09:00 AM  79.3°F  68°F  calm  1 mph  none  0.00"  45%  69%  55°F  58°F  N/A
Thu 08:00 AM  72.5°F  62°F  calm  1 mph  none  0.00"  56%  80%  56°F  55°F  N/A
Thu 07:00 AM  67.4°F  58°F  calm  1 mph  none  0.00"  65%  83%  55°F  53°F  N/A
3Thu 06:07 AM  67.1°F  59°F  calm  1 mph  none  ----  62%  82%  53°F  53°F  N/A
Thu 06:00 AM  67.1°F  59°F  calm  1 mph  none  0.00"  63%  82%  53°F  53°F  N/A
Thu 05:00 AM  69.7°F  59°F  calm  1 mph  none  0.00"  59%  80%  54°F  53°F  N/A
Thu 04:00 AM  69.8°F  60°F  calm  1 mph  none  0.00"  58%  79%  54°F  53°F  N/A
Thu 03:00 AM  70.3°F  61°F  calm  1 mph  none  0.00"  57%  78%  54°F  54°F  N/A
Thu 02:00 AM  71.8°F  62°F  calm  1 mph  none  0.00"  53%  76%  53°F  54°F  N/A
Thu 01:00 AM  74.8°F  63°F  calm  1 mph  none  0.00"  48%  75%  53°F  54°F  N/A
Thu 12:00 AM  76.4°F  64°F  calm  1 mph  none  0.00"  44%  74%  52°F  55°F  N/A
Wed 11:00 PM  77.0°F  65°F  calm  1 mph  none  0.00"  43%  73%  52°F  55°F  N/A
Wed 10:00 PM  78.3°F  66°F  calm  2 mph  none  0.00"  41%  71%  52°F  56°F  N/A
Wed 09:00 PM  80.4°F  68°F  calm  2 mph  none  0.00"  39%  68%  52°F  57°F  N/A
Wed 08:00 PM  84.1°F  70°F  calm  5 mph  none  0.00"  38%  64%  55°F  57°F  N/A
Wed 07:00 PM  87.0°F  74°F  calm  6 mph  none  0.00"  34%  57%  55°F  57°F  N/A
Wed 06:00 PM  90.2°F  78°F  calm  7 mph  none  0.00"  30%  48%  54°F  56°F  N/A
Wed 05:00 PM  94.4°F  82°F  calm  8 mph  none  0.00"  24%  40%  51°F  54°F  N/A
Wed 04:00 PM  98.8°F  85°F  calm  8 mph  none  0.00"  19%  35%  48°F  53°F  N/A
Wed 03:00 PM  101.1°F  86°F  calm  9 mph  none  0.00"  17%  33%  46°F  53°F  N/A
Wed 02:00 PM  101.2°F  86°F  calm  8 mph  none  0.00"  16%  33%  45°F  53°F  N/A
Wed 01:00 PM  101.3°F  86°F  calm  6 mph  none  0.00"  12%  33%  36°F  52°F  N/A
Wed 12:00 PM  96.4°F  84°F  calm  5 mph  none  0.00"  20%  36%  48°F  53°F  N/A
Wed 11:00 AM  93.0°F  80°F  calm  3 mph  none  0.00"  24%  44%  49°F  55°F  N/A
Wed 10:00 AM  86.6°F  74°F  calm  2 mph  none  0.00"  36%  56%  55°F  57°F  N/A
Wed 09:00 AM  78.5°F  68°F  calm  1 mph  none  0.00"  46%  70%  55°F  58°F  N/A
Wed 08:00 AM  69.9°F  62°F  calm  1 mph  none  0.00"  58%  80%  54°F  56°F  N/A
Wed 07:00 AM  66.1°F  58°F  calm  1 mph  none  0.00"  63%  83%  53°F  53°F  N/A
Wed 06:00 AM  66.3°F  59°F  calm  1 mph  none  0.00"  60%  82%  51°F  53°F  N/A
Wed 05:00 AM  67.0°F  59°F  calm  1 mph  none  0.00"  57%  81%  51°F  53°F  N/A
Wed 04:00 AM  67.3°F  60°F  calm  1 mph  none  0.00"  56%  80%  50°F  53°F  N/A
Wed 03:00 AM  68.9°F  61°F  calm  1 mph  none  0.00"  53%  79%  50°F  54°F  N/A

  1. Current weather data. No green row appears if the current weather data is also the high or low for the current day.
  2. High temperature for the current day.
  3. Low temperature for the current day.

The Murrieta weather pages are a service of WeatherCurrents. Murrieta, California is located in the Temecula Valley, in southwestern Riverside County, at the junctions of the Interstate 15 and 215 highways.
Copyright ©2021  WeatherCurrents. All rights reserved. - Submit questions and comments - Privacy Policy

This page automatically refreshes every 10 minutes.